Time;durP1;ratioP1;P1;durP2;ratioP2;P2;SDS_P1;SDS_P2;PMS_P1;PMS_P2;Temp;Humidity;BMP_temperature;BMP_pressure;BME280_temperature;BME280_humidity;BME280_pressure;Samples;Min_cycle;Max_cycle;Signal;HPM_P1;HPM_P2
2023/01/17 00:02:18;;;;;;;0.00;0.00;;;3.20;99.90;;;;;;5095979;28;20047;-89
2023/01/17 00:10:16;;;;;;;0.00;0.00;;;3.20;99.90;;;;;;5096108;28;20056;-90
2023/01/17 00:13:08;;;;;;;0.00;0.00;;;3.10;99.90;;;;;;5098434;28;20097;-92
2023/01/17 00:15:36;;;;;;;0.00;0.00;;;3.00;99.90;;;;;;5094935;28;20505;-90
2023/01/17 00:18:01;;;;;;;0.00;0.00;;;2.90;99.90;;;;;;5098923;28;20414;-91
2023/01/17 00:26:03;;;;;;;0.00;0.00;;;2.70;99.90;;;;;;5097845;28;20055;-90
2023/01/17 01:35:48;;;;;;;0.00;0.00;;;2.50;99.90;;;;;;5099895;28;20056;-90
2023/01/17 01:38:14;;;;;;;0.00;0.00;;;2.50;99.90;;;;;;5089842;28;20040;-89
2023/01/17 01:40:53;;;;;;;0.00;0.00;;;2.50;99.90;;;;;;5119197;28;20044;-89
2023/01/17 01:43:39;;;;;;;0.00;0.00;;;2.40;99.90;;;;;;5110070;28;20040;-90
2023/01/17 01:46:05;;;;;;;0.00;0.00;;;2.40;99.90;;;;;;5100166;28;20134;-90
2023/01/17 01:48:54;;;;;;;0.00;0.00;;;2.30;99.90;;;;;;5100650;28;20407;-90
2023/01/17 01:51:33;;;;;;;0.00;0.00;;;2.30;99.90;;;;;;5100471;28;20534;-90
2023/01/17 01:54:10;;;;;;;0.00;0.00;;;2.30;99.90;;;;;;5099006;28;20044;-89
2023/01/17 01:56:37;;;;;;;0.00;0.00;;;2.30;99.90;;;;;;5099311;28;20124;-90
2023/01/17 01:59:07;;;;;;;0.00;0.00;;;2.30;99.90;;;;;;5100751;28;20051;-89
2023/01/17 02:01:33;;;;;;;0.00;0.00;;;2.30;99.90;;;;;;5100263;28;20036;-89
2023/01/17 02:03:59;;;;;;;0.00;0.00;;;3.20;99.90;;;;;;5099109;28;20051;-89
2023/01/17 02:06:27;;;;;;;0.00;0.00;;;2.40;99.90;;;;;;5097878;28;20495;-89
2023/01/17 02:08:53;;;;;;;0.30;0.30;;;2.40;99.90;;;;;;5098742;28;20092;-89
2023/01/17 02:11:18;;;;;;;0.00;0.00;;;2.40;99.90;;;;;;5098718;28;20076;-89
2023/01/17 02:13:44;;;;;;;0.60;0.60;;;2.40;99.90;;;;;;5099373;28;20070;-89
2023/01/17 02:16:35;;;;;;;0.00;0.00;;;3.30;99.90;;;;;;5099526;28;20040;-89
2023/01/17 02:19:13;;;;;;;0.00;0.00;;;2.30;99.90;;;;;;5099027;28;20075;-89
2023/01/17 02:22:19;;;;;;;1.23;0.57;;;2.30;99.90;;;;;;5097186;28;20109;-89
2023/01/17 02:25:03;;;;;;;0.00;0.00;;;2.20;99.90;;;;;;5094628;28;20109;-89
2023/01/17 02:27:44;;;;;;;0.03;0.03;;;2.20;99.90;;;;;;5098081;28;20067;-90
2023/01/17 02:30:18;;;;;;;0.00;0.00;;;2.20;99.90;;;;;;5098951;28;20040;-90
2023/01/17 02:32:54;;;;;;;0.00;0.00;;;2.20;99.90;;;;;;5097134;28;20063;-89
2023/01/17 02:36:03;;;;;;;0.80;0.80;;;2.30;99.90;;;;;;5097149;28;20044;-90
2023/01/17 02:39:03;;;;;;;0.00;0.00;;;2.20;99.90;;;;;;5035919;28;20091;-89
2023/01/17 02:41:40;;;;;;;0.20;0.20;;;2.30;99.90;;;;;;5098391;28;20039;-91
2023/01/17 02:44:08;;;;;;;0.00;0.00;;;2.20;99.90;;;;;;5098406;28;20075;-90
2023/01/17 02:46:46;;;;;;;0.00;0.00;;;2.20;99.90;;;;;;5097923;28;20044;-90
2023/01/17 02:49:13;;;;;;;0.00;0.00;;;2.20;99.90;;;;;;5096805;28;20084;-91
2023/01/17 02:51:56;;;;;;;0.00;0.00;;;2.20;99.90;;;;;;5098054;28;20498;-90
2023/01/17 02:54:48;;;;;;;0.00;0.00;;;2.20;99.90;;;;;;5096782;28;20044;-90
2023/01/17 02:57:45;;;;;;;0.00;0.00;;;2.20;99.90;;;;;;5097794;28;20044;-90
2023/01/17 03:00:40;;;;;;;0.00;0.00;;;2.10;99.90;;;;;;5097597;28;20119;-90
2023/01/17 03:03:59;;;;;;;0.00;0.00;;;2.20;99.90;;;;;;5074918;28;20055;-90
2023/01/17 03:06:47;;;;;;;0.00;0.00;;;2.20;99.90;;;;;;5034545;28;20042;-90
2023/01/17 03:09:16;;;;;;;0.00;0.00;;;2.20;99.90;;;;;;5018026;28;20061;-90
2023/01/17 03:11:42;;;;;;;0.00;0.00;;;2.20;99.90;;;;;;5067130;28;20108;-90
2023/01/17 03:14:08;;;;;;;0.10;0.10;;;2.30;99.90;;;;;;5097184;28;20071;-90
2023/01/17 03:16:34;;;;;;;0.10;0.10;;;2.40;99.90;;;;;;5096536;28;20086;-90
2023/01/17 03:18:59;;;;;;;0.00;0.00;;;2.40;99.90;;;;;;5096842;28;20040;-90
2023/01/17 03:21:25;;;;;;;0.00;0.00;;;2.40;99.90;;;;;;5095449;28;20452;-90
2023/01/17 03:23:51;;;;;;;0.10;0.10;;;2.30;99.90;;;;;;5096620;28;20130;-90
2023/01/17 03:26:17;;;;;;;0.00;0.00;;;2.30;99.90;;;;;;5095363;28;20490;-90
2023/01/17 03:28:42;;;;;;;0.00;0.00;;;2.20;99.90;;;;;;5113331;28;20071;-90
2023/01/17 03:31:08;;;;;;;0.00;0.00;;;2.10;99.90;;;;;;5097411;28;20047;-90
2023/01/17 03:33:34;;;;;;;0.00;0.00;;;2.10;99.90;;;;;;5096885;28;20402;-90
2023/01/17 03:35:59;;;;;;;0.00;0.00;;;2.00;99.90;;;;;;5097319;28;20039;-90
2023/01/17 03:38:26;;;;;;;0.00;0.00;;;2.00;99.90;;;;;;5096997;28;20046;-90
2023/01/17 03:40:52;;;;;;;0.00;0.00;;;1.90;99.90;;;;;;5092731;28;20047;-90
2023/01/17 03:43:18;;;;;;;0.00;0.00;;;1.90;99.90;;;;;;5095342;28;20040;-90
2023/01/17 03:45:43;;;;;;;0.00;0.00;;;1.90;99.90;;;;;;5096612;28;20086;-90
2023/01/17 03:48:09;;;;;;;0.00;0.00;;;1.90;99.90;;;;;;5096465;28;20040;-90
2023/01/17 03:50:35;;;;;;;0.00;0.00;;;1.90;99.90;;;;;;5097102;28;20054;-90
2023/01/17 03:53:01;;;;;;;0.00;0.00;;;1.90;99.90;;;;;;5096262;28;20503;-90
2023/01/17 03:55:26;;;;;;;0.85;0.85;;;1.90;99.90;;;;;;5095042;28;20118;-89
2023/01/17 03:57:52;;;;;;;0.20;0.20;;;2.00;99.90;;;;;;5096190;28;20040;-90
2023/01/17 04:00:19;;;;;;;0.63;0.63;;;2.00;99.90;;;;;;5095118;28;20084;-89
2023/01/17 04:02:45;;;;;;;0.10;0.10;;;1.80;99.90;;;;;;5094729;28;20059;-90
2023/01/17 04:05:10;;;;;;;0.00;0.00;;;1.70;99.90;;;;;;5095772;28;20052;-90
2023/01/17 04:07:36;;;;;;;0.00;0.00;;;1.70;99.90;;;;;;5096007;28;20040;-90
2023/01/17 04:10:02;;;;;;;0.00;0.00;;;1.70;99.90;;;;;;5096306;28;20044;-89
2023/01/17 04:12:28;;;;;;;0.03;0.03;;;1.50;99.90;;;;;;5095969;28;20040;-89
2023/01/17 04:14:53;;;;;;;0.00;0.00;;;1.50;99.90;;;;;;5080294;28;20040;-90
2023/01/17 04:17:19;;;;;;;0.10;0.10;;;1.40;99.90;;;;;;5075556;28;20047;-90
2023/01/17 04:19:45;;;;;;;0.00;0.00;;;1.20;99.90;;;;;;5075389;28;20032;-90
2023/01/17 04:22:11;;;;;;;0.00;0.00;;;1.10;99.90;;;;;;5074517;28;20049;-89
2023/01/17 04:24:37;;;;;;;0.00;0.00;;;1.10;99.90;;;;;;5084902;28;20055;-89
2023/01/17 04:27:05;;;;;;;0.00;0.00;;;1.10;99.90;;;;;;5096015;28;20047;-89
2023/01/17 04:29:31;;;;;;;0.00;0.00;;;1.10;99.90;;;;;;5094705;28;20534;-90
2023/01/17 04:31:57;;;;;;;0.00;0.00;;;1.20;99.90;;;;;;5095993;28;20041;-89
2023/01/17 04:34:22;;;;;;;0.00;0.00;;;1.10;99.90;;;;;;5088152;28;20036;-89
2023/01/17 04:36:48;;;;;;;0.00;0.00;;;1.20;99.90;;;;;;5075719;28;20391;-88
2023/01/17 04:39:13;;;;;;;0.00;0.00;;;1.10;99.90;;;;;;5075809;28;20119;-89
2023/01/17 04:41:39;;;;;;;1.27;0.85;;;1.10;99.90;;;;;;5075693;28;20394;-89
2023/01/17 04:44:05;;;;;;;0.00;0.00;;;1.10;99.90;;;;;;5075653;28;20033;-89
2023/01/17 04:46:30;;;;;;;0.00;0.00;;;1.10;99.90;;;;;;5075292;28;20044;-89
2023/01/17 04:48:56;;;;;;;0.00;0.00;;;1.10;99.90;;;;;;5075122;28;20043;-89
2023/01/17 04:51:22;;;;;;;0.00;0.00;;;1.00;99.90;;;;;;5090773;28;20048;-89
2023/01/17 04:53:47;;;;;;;0.00;0.00;;;1.00;99.90;;;;;;5094229;28;20036;-89
2023/01/17 04:56:13;;;;;;;0.00;0.00;;;1.00;99.90;;;;;;5093811;28;20192;-89
2023/01/17 04:58:38;;;;;;;0.00;0.00;;;0.90;99.90;;;;;;5094920;28;20046;-88
2023/01/17 05:01:06;;;;;;;0.00;0.00;;;0.80;99.90;;;;;;5095559;28;20051;-89
2023/01/17 05:03:33;;;;;;;0.00;0.00;;;0.80;99.90;;;;;;5095285;28;20047;-89
2023/01/17 05:05:59;;;;;;;0.00;0.00;;;0.60;99.90;;;;;;5093860;28;20036;-88
2023/01/17 05:08:25;;;;;;;3.70;1.53;;;0.60;99.90;;;;;;5095263;28;20047;-89
2023/01/17 05:10:51;;;;;;;0.03;0.03;;;0.60;99.90;;;;;;5095497;28;20111;-89
2023/01/17 05:13:17;;;;;;;0.00;0.00;;;0.60;99.90;;;;;;5093988;28;20043;-89
2023/01/17 05:15:43;;;;;;;0.00;0.00;;;0.60;99.90;;;;;;5095556;28;20040;-89
2023/01/17 05:18:13;;;;;;;0.00;0.00;;;0.50;99.90;;;;;;5094866;28;20097;-89
2023/01/17 05:20:39;;;;;;;0.00;0.00;;;0.50;99.90;;;;;;5094931;28;20052;-89
2023/01/17 05:23:05;;;;;;;9.70;3.28;;;0.50;99.90;;;;;;5095076;28;20046;-89
2023/01/17 05:25:31;;;;;;;0.10;0.10;;;0.50;99.90;;;;;;5095562;28;20122;-89
2023/01/17 05:28:01;;;;;;;0.37;0.37;;;0.40;99.90;;;;;;5096081;28;20036;-89
2023/01/17 05:30:31;;;;;;;0.00;0.00;;;0.30;99.90;;;;;;5096343;28;20040;-89
2023/01/17 05:32:57;;;;;;;0.00;0.00;;;0.30;99.90;;;;;;5096188;28;20036;-89
2023/01/17 05:35:27;;;;;;;0.00;0.00;;;0.20;99.90;;;;;;5096101;28;20040;-89
2023/01/17 05:37:52;;;;;;;0.87;0.87;;;0.20;99.90;;;;;;5096143;28;20032;-89
2023/01/17 05:40:20;;;;;;;1.25;1.10;;;0.10;99.90;;;;;;5095848;28;20498;-89
2023/01/17 05:42:47;;;;;;;0.00;0.00;;;0.10;99.90;;;;;;5098396;28;20039;-89
2023/01/17 05:45:15;;;;;;;0.00;0.00;;;0.10;99.90;;;;;;5099586;28;20411;-89
2023/01/17 05:47:42;;;;;;;0.00;0.00;;;0.20;99.90;;;;;;5098120;28;20055;-89
2023/01/17 05:50:12;;;;;;;0.07;0.07;;;0.20;99.90;;;;;;5089264;28;20051;-88
2023/01/17 05:52:38;;;;;;;0.00;0.00;;;0.10;99.90;;;;;;5087332;28;20046;-89
2023/01/17 05:55:06;;;;;;;0.00;0.00;;;0.10;99.90;;;;;;5093090;28;20051;-89
2023/01/17 05:57:32;;;;;;;0.00;0.00;;;0.10;99.90;;;;;;5087914;28;20109;-89
2023/01/17 05:59:57;;;;;;;0.57;0.57;;;0.10;99.90;;;;;;5082378;28;20035;-89
2023/01/17 06:02:23;;;;;;;0.17;0.17;;;0.10;99.90;;;;;;5097306;28;20103;-89
2023/01/17 06:04:48;;;;;;;0.25;0.25;;;0.10;99.90;;;;;;5097129;28;20051;-89
2023/01/17 06:07:14;;;;;;;0.00;0.00;;;0.10;99.90;;;;;;5098403;28;20395;-89
2023/01/17 06:09:40;;;;;;;0.00;0.00;;;0.10;99.90;;;;;;5098645;28;20046;-89
2023/01/17 06:12:05;;;;;;;0.00;0.00;;;0.00;99.90;;;;;;5097063;28;20402;-89
2023/01/17 06:14:31;;;;;;;0.00;0.00;;;0.00;99.90;;;;;;5114337;28;20040;-89
2023/01/17 06:16:56;;;;;;;0.00;0.00;;;-0.10;99.90;;;;;;5089644;28;20399;-89
2023/01/17 06:19:22;;;;;;;3.72;1.48;;;-0.10;99.90;;;;;;5076420;28;20036;-89
2023/01/17 06:21:48;;;;;;;0.00;0.00;;;-0.30;99.90;;;;;;5094694;28;20108;-89
2023/01/17 06:24:13;;;;;;;0.00;0.00;;;-0.30;99.90;;;;;;5097007;28;20047;-89
2023/01/17 06:26:41;;;;;;;0.00;0.00;;;-0.30;99.90;;;;;;5095342;28;20445;-89
2023/01/17 06:29:07;;;;;;;0.00;0.00;;;-0.40;99.90;;;;;;5094769;28;20487;-89
2023/01/17 06:31:33;;;;;;;5.88;2.47;;;-0.40;99.90;;;;;;5095444;28;20040;-89
2023/01/17 06:34:02;;;;;;;0.00;0.00;;;-0.40;99.90;;;;;;5095236;28;20036;-89
2023/01/17 06:36:27;;;;;;;0.00;0.00;;;-0.40;99.90;;;;;;5097671;28;20055;-89
2023/01/17 06:38:53;;;;;;;0.00;0.00;;;-0.40;99.90;;;;;;5098440;28;20119;-89
2023/01/17 06:41:18;;;;;;;0.00;0.00;;;-0.30;99.90;;;;;;5096144;28;20417;-89
2023/01/17 06:43:44;;;;;;;0.00;0.00;;;-0.30;99.90;;;;;;5097212;28;20093;-89
2023/01/17 06:46:09;;;;;;;0.00;0.00;;;-0.40;99.90;;;;;;5096656;28;20039;-89
2023/01/17 06:48:35;;;;;;;0.00;0.00;;;-0.40;99.90;;;;;;5098175;28;20403;-89
2023/01/17 06:51:00;;;;;;;0.00;0.00;;;-0.40;99.90;;;;;;5098321;28;20123;-88
2023/01/17 06:53:26;;;;;;;1.43;1.33;;;-0.40;99.90;;;;;;5095866;28;20046;-89
2023/01/17 06:55:56;;;;;;;1.23;1.17;;;-0.30;99.90;;;;;;5096394;28;20522;-89
2023/01/17 06:58:22;;;;;;;0.00;0.00;;;-0.20;99.90;;;;;;5096066;28;20093;-89
2023/01/17 07:00:48;;;;;;;0.00;0.00;;;-0.20;99.90;;;;;;5096005;28;20051;-89
2023/01/17 07:03:20;;;;;;;0.00;0.00;;;-0.20;99.90;;;;;;5097444;28;20040;-89
2023/01/17 07:05:46;;;;;;;0.00;0.00;;;-0.20;99.90;;;;;;5097463;28;20040;-89
2023/01/17 07:08:12;;;;;;;0.10;0.10;;;-0.30;99.90;;;;;;5096273;28;20047;-89
2023/01/17 07:10:37;;;;;;;0.00;0.00;;;-0.30;99.90;;;;;;5098123;28;20040;-90
2023/01/17 07:13:03;;;;;;;0.00;0.00;;;-0.40;99.90;;;;;;5096582;28;20036;-89
2023/01/17 07:15:29;;;;;;;0.00;0.00;;;-0.40;99.90;;;;;;5097655;28;20123;-89
2023/01/17 07:17:54;;;;;;;0.00;0.00;;;-0.40;99.90;;;;;;5097511;28;20056;-89
2023/01/17 07:20:20;;;;;;;0.00;0.00;;;-0.50;99.90;;;;;;5096046;28;20122;-89
2023/01/17 07:22:45;;;;;;;0.00;0.00;;;-0.50;99.90;;;;;;5095799;28;20076;-89
2023/01/17 07:25:11;;;;;;;0.00;0.00;;;-0.50;99.90;;;;;;5094900;28;20036;-89
2023/01/17 07:27:37;;;;;;;0.10;0.10;;;-0.50;99.90;;;;;;5095125;28;20399;-89
2023/01/17 07:30:03;;;;;;;0.00;0.00;;;-0.50;99.90;;;;;;5095000;28;20036;-89
2023/01/17 07:32:28;;;;;;;0.00;0.00;;;-0.50;99.90;;;;;;5094865;28;20114;-89
2023/01/17 07:34:56;;;;;;;0.00;0.00;;;-0.50;99.90;;;;;;5094964;28;20568;-90
2023/01/17 07:37:22;;;;;;;0.75;0.65;;;-0.50;99.90;;;;;;5094698;28;20124;-89
2023/01/17 07:39:48;;;;;;;1.67;1.00;;;0.60;99.90;;;;;;5094822;28;20444;-89
2023/01/17 07:42:14;;;;;;;0.00;0.00;;;-0.50;99.90;;;;;;5094744;28;20044;-89
2023/01/17 07:44:42;;;;;;;0.10;0.10;;;-0.50;99.90;;;;;;5093218;28;20050;-89
2023/01/17 07:47:08;;;;;;;3.50;1.60;;;-0.60;99.90;;;;;;5094173;28;20032;-89
2023/01/17 07:49:34;;;;;;;0.00;0.00;;;-0.60;99.90;;;;;;5092616;28;20052;-88
2023/01/17 07:51:59;;;;;;;0.00;0.00;;;-0.60;99.90;;;;;;5092601;28;20055;-89
2023/01/17 07:54:25;;;;;;;0.00;0.00;;;-0.60;99.90;;;;;;5094277;28;20042;-89
2023/01/17 07:56:51;;;;;;;0.00;0.00;;;-0.60;99.90;;;;;;5094154;28;20544;-88
2023/01/17 07:59:17;;;;;;;0.00;0.00;;;-0.50;99.90;;;;;;5094130;28;20123;-88
2023/01/17 08:01:43;;;;;;;0.00;0.00;;;-0.50;99.90;;;;;;5094427;28;20072;-88
2023/01/17 08:04:09;;;;;;;0.07;0.07;;;-0.50;99.90;;;;;;5092209;28;20058;-88
2023/01/17 08:06:46;;;;;;;0.00;0.00;;;-0.50;99.90;;;;;;5093811;28;20086;-88
2023/01/17 08:09:12;;;;;;;0.00;0.00;;;-0.50;99.90;;;;;;5092664;28;20051;-88
2023/01/17 08:11:38;;;;;;;0.00;0.00;;;-0.40;99.90;;;;;;5094193;28;20437;-88
2023/01/17 08:14:03;;;;;;;0.00;0.00;;;-0.40;99.90;;;;;;5094002;28;20143;-88
2023/01/17 08:16:29;;;;;;;0.13;0.13;;;-0.40;99.90;;;;;;5091840;28;20404;-88
2023/01/17 08:18:55;;;;;;;0.00;0.00;;;-0.30;99.90;;;;;;5090517;28;20051;-88
2023/01/17 08:21:21;;;;;;;0.00;0.00;;;-0.30;99.90;;;;;;5091675;28;20076;-88
2023/01/17 08:23:48;;;;;;;0.50;0.50;;;-0.20;99.90;;;;;;5090262;28;20555;-88
2023/01/17 08:26:20;;;;;;;0.00;0.00;;;-0.20;99.90;;;;;;5091887;28;20043;-88
2023/01/17 08:28:47;;;;;;;0.00;0.00;;;-0.20;99.90;;;;;;5091459;28;20075;-88
2023/01/17 08:31:12;;;;;;;0.00;0.00;;;-0.10;99.90;;;;;;5092205;28;20048;-89
2023/01/17 08:33:38;;;;;;;0.00;0.00;;;0.00;99.90;;;;;;5090776;28;20040;-87
2023/01/17 08:36:04;;;;;;;0.00;0.00;;;0.10;99.90;;;;;;5091685;28;20441;-88
2023/01/17 08:38:29;;;;;;;0.00;0.00;;;0.10;99.90;;;;;;5090143;28;20379;-87
2023/01/17 08:40:58;;;;;;;0.00;0.00;;;0.20;99.90;;;;;;5091724;28;20040;-88
2023/01/17 08:43:24;;;;;;;0.00;0.00;;;0.20;99.90;;;;;;5091486;28;20032;-88
2023/01/17 08:45:50;;;;;;;0.00;0.00;;;0.20;99.90;;;;;;5091871;28;20100;-88
2023/01/17 08:48:15;;;;;;;0.00;0.00;;;0.20;99.90;;;;;;5091345;28;20052;-88
2023/01/17 08:50:41;;;;;;;0.00;0.00;;;0.20;99.90;;;;;;5091424;28;20134;-88
2023/01/17 08:53:06;;;;;;;0.00;0.00;;;0.30;99.90;;;;;;5091583;28;20070;-88
2023/01/17 08:55:37;;;;;;;0.08;0.08;;;0.30;99.90;;;;;;5091876;28;20043;-88
2023/01/17 08:58:03;;;;;;;0.00;0.00;;;0.40;99.90;;;;;;5091329;28;20040;-88
2023/01/17 09:00:28;;;;;;;0.00;0.00;;;0.40;99.90;;;;;;5091098;28;20046;-88
2023/01/17 09:02:54;;;;;;;0.00;0.00;;;0.40;99.90;;;;;;5089590;28;20055;-87
2023/01/17 09:05:20;;;;;;;0.00;0.00;;;0.40;99.90;;;;;;5089804;28;20055;-88
2023/01/17 09:07:45;;;;;;;0.00;0.00;;;0.50;99.90;;;;;;5091123;28;20071;-88
2023/01/17 09:10:11;;;;;;;0.00;0.00;;;0.50;99.90;;;;;;5089651;28;20066;-88
2023/01/17 09:12:37;;;;;;;0.00;0.00;;;0.50;99.90;;;;;;5091207;28;20039;-88
2023/01/17 09:15:04;;;;;;;0.00;0.00;;;0.50;99.90;;;;;;5092443;28;20443;-88
2023/01/17 09:17:29;;;;;;;0.00;0.00;;;0.60;99.90;;;;;;5095057;28;20083;-88
2023/01/17 09:19:55;;;;;;;0.00;0.00;;;0.70;99.90;;;;;;5093806;28;20075;-88
2023/01/17 09:22:20;;;;;;;0.00;0.00;;;0.70;99.90;;;;;;5095026;28;20144;-87
2023/01/17 09:24:46;;;;;;;0.00;0.00;;;0.80;99.90;;;;;;5094668;28;20033;-87
2023/01/17 09:27:11;;;;;;;0.00;0.00;;;0.80;99.90;;;;;;5095009;28;20048;-87
2023/01/17 09:29:37;;;;;;;0.00;0.00;;;0.80;99.90;;;;;;5116074;28;20099;-88
2023/01/17 09:32:03;;;;;;;0.57;0.57;;;0.80;99.90;;;;;;5114530;28;20033;-87
2023/01/17 09:34:29;;;;;;;0.00;0.00;;;0.80;99.90;;;;;;5094765;28;20073;-87
2023/01/17 09:36:55;;;;;;;0.00;0.00;;;0.90;99.90;;;;;;5093221;28;20035;-86
2023/01/17 09:39:21;;;;;;;0.00;0.00;;;0.90;99.90;;;;;;5097387;28;20086;-87
2023/01/17 09:42:17;;;;;;;0.00;0.00;;;1.00;99.90;;;;;;5097475;28;20071;-88
2023/01/17 09:44:53;;;;;;;0.00;0.00;;;1.10;99.90;;;;;;5097906;28;20102;-87
2023/01/17 09:47:38;;;;;;;0.00;0.00;;;2.20;99.90;;;;;;5097128;28;20048;-87
2023/01/17 09:50:26;;;;;;;0.00;0.00;;;1.20;99.90;;;;;;5097003;28;20106;-87
2023/01/17 09:53:00;;;;;;;0.00;0.00;;;1.30;99.90;;;;;;5085379;28;20048;-88
2023/01/17 09:55:35;;;;;;;1.17;0.90;;;1.40;99.90;;;;;;5096597;28;20040;-87
2023/01/17 09:58:10;;;;;;;0.10;0.10;;;1.40;99.90;;;;;;5096780;28;20490;-88
2023/01/17 10:00:50;;;;;;;0.00;0.00;;;1.60;99.90;;;;;;5096555;28;20044;-88
2023/01/17 10:03:30;;;;;;;0.00;0.00;;;1.70;99.90;;;;;;5095655;28;20048;-88
2023/01/17 10:05:58;;;;;;;0.08;0.08;;;1.90;99.90;;;;;;5112360;28;20048;-87
2023/01/17 10:08:49;;;;;;;0.45;0.45;;;2.20;99.90;;;;;;5095076;28;20048;-88
2023/01/17 10:11:44;;;;;;;3.00;2.45;;;2.50;99.90;;;;;;5097550;28;20036;-88
2023/01/17 10:14:40;;;;;;;0.10;0.10;;;2.90;99.90;;;;;;5096434;28;20044;-88
2023/01/17 10:17:19;;;;;;;0.00;0.00;;;3.10;99.90;;;;;;5096165;28;20044;-89
2023/01/17 10:19:45;;;;;;;0.38;0.38;;;3.40;99.90;;;;;;5094752;28;20165;-89
2023/01/17 10:22:45;;;;;;;0.00;0.00;;;3.50;99.90;;;;;;5095776;28;20498;-88
2023/01/17 10:25:25;;;;;;;0.00;0.00;;;3.40;99.90;;;;;;5095774;28;20511;-89
2023/01/17 10:27:51;;;;;;;0.00;0.00;;;3.30;99.90;;;;;;5093676;28;20048;-89
2023/01/17 10:30:35;;;;;;;0.00;0.00;;;3.20;99.90;;;;;;5094922;28;20131;-89
2023/01/17 10:33:34;;;;;;;0.00;0.00;;;3.00;99.90;;;;;;5094451;28;20052;-89
2023/01/17 10:36:06;;;;;;;0.00;0.00;;;2.80;99.90;;;;;;5095996;28;20048;-89
2023/01/17 10:38:36;;;;;;;0.17;0.17;;;2.70;99.90;;;;;;5095777;28;20071;-89
2023/01/17 10:41:05;;;;;;;0.00;0.00;;;2.50;99.90;;;;;;5094511;28;20087;-89
2023/01/17 10:43:50;;;;;;;0.00;0.00;;;2.50;99.90;;;;;;5094360;28;20487;-88
2023/01/17 10:46:21;;;;;;;0.00;0.00;;;2.40;99.90;;;;;;5095135;28;20097;-89
2023/01/17 10:48:50;;;;;;;0.10;0.10;;;2.50;99.90;;;;;;5095344;28;20044;-88
2023/01/17 10:51:31;;;;;;;0.00;0.00;;;2.50;99.90;;;;;;5095648;28;20042;-88
2023/01/17 10:54:14;;;;;;;0.00;0.00;;;2.50;99.90;;;;;;5095518;28;20101;-88
2023/01/17 10:56:42;;;;;;;0.00;0.00;;;2.60;99.90;;;;;;5095117;28;20044;-89
2023/01/17 10:59:36;;;;;;;0.00;0.00;;;2.60;99.90;;;;;;5095417;28;20048;-89
2023/01/17 11:02:09;;;;;;;0.00;0.00;;;2.70;99.90;;;;;;5092200;28;20091;-89
2023/01/17 11:04:37;;;;;;;0.00;0.00;;;2.80;99.90;;;;;;5095013;28;20047;-89
2023/01/17 11:07:20;;;;;;;0.35;0.35;;;2.90;99.90;;;;;;5093998;28;20040;-89
2023/01/17 11:09:52;;;;;;;0.00;0.00;;;2.90;99.90;;;;;;5095215;28;20053;-89
2023/01/17 11:12:38;;;;;;;0.00;0.00;;;3.00;99.90;;;;;;5095081;28;20040;-89
2023/01/17 11:15:16;;;;;;;;;;;3.00;99.90;;;;;;5094011;28;20048;-89
2023/01/17 11:17:48;;;;;;;0.00;0.00;;;3.10;99.90;;;;;;5094751;28;20095;-89
2023/01/17 11:20:18;;;;;;;0.00;0.00;;;3.00;99.90;;;;;;5095017;28;20040;-89
2023/01/17 11:23:01;;;;;;;0.00;0.00;;;3.00;99.90;;;;;;5095260;28;20113;-89
2023/01/17 11:25:29;;;;;;;0.00;0.00;;;3.10;99.90;;;;;;5093721;28;20044;-89
2023/01/17 11:28:05;;;;;;;0.00;0.00;;;3.10;99.90;;;;;;5094638;28;20147;-89
2023/01/17 11:30:30;;;;;;;0.00;0.00;;;3.20;99.90;;;;;;5094757;28;20115;-89
2023/01/17 11:33:05;;;;;;;2.03;1.58;;;3.30;99.90;;;;;;5094605;28;20075;-89
2023/01/17 11:35:31;;;;;;;0.00;0.00;;;3.30;99.90;;;;;;5093999;28;20455;-89
2023/01/17 11:38:19;;;;;;;0.00;0.00;;;3.30;99.90;;;;;;5094456;28;20123;-89
2023/01/17 11:40:47;;;;;;;0.00;0.00;;;3.40;19.70;;;;;;5093538;28;20044;-88
2023/01/17 11:43:20;;;;;;;0.00;0.00;;;3.40;99.90;;;;;;5094200;28;20040;-89
2023/01/17 11:46:00;;;;;;;0.00;0.00;;;3.40;99.90;;;;;;5094624;28;20051;-89
2023/01/17 11:48:36;;;;;;;0.10;0.10;;;3.50;99.90;;;;;;5094358;28;20036;-88
2023/01/17 11:51:03;;;;;;;0.32;0.32;;;3.60;99.90;;;;;;5094698;28;20109;-89
2023/01/17 11:53:35;;;;;;;0.63;0.45;;;3.60;99.90;;;;;;5094698;28;20059;-89
2023/01/17 11:56:17;;;;;;;0.10;0.10;;;3.70;99.90;;;;;;5094723;28;20406;-88
2023/01/17 11:58:44;;;;;;;0.00;0.00;;;3.70;1.00;;;;;;5094431;28;20040;-88
2023/01/17 12:01:25;;;;;;;0.00;0.00;;;3.70;1.00;;;;;;5093101;28;20047;-89
2023/01/17 12:04:21;;;;;;;0.00;0.00;;;3.70;99.90;;;;;;5093906;28;20052;-89
2023/01/17 12:07:05;;;;;;;2.45;0.80;;;3.80;99.90;;;;;;5094423;28;20044;-89
2023/01/17 12:09:58;;;;;;;0.00;0.00;;;3.90;99.90;;;;;;5092831;28;20082;-89
2023/01/17 12:15:56;;;;;;;0.00;0.00;;;4.10;1.00;;;;;;5093951;28;20044;-89
2023/01/17 12:18:43;;;;;;;0.63;0.63;;;4.20;99.90;;;;;;5093947;28;20109;-89
2023/01/17 12:22:10;;;;;;;0.00;0.00;;;4.30;1.00;;;;;;5096308;28;20044;-88
2023/01/17 12:24:51;;;;;;;0.00;0.00;;;4.50;17.20;;;;;;5054484;28;20048;-89
2023/01/17 12:27:23;;;;;;;0.00;0.00;;;4.60;99.90;;;;;;5096089;28;20086;-89
2023/01/17 12:30:04;;;;;;;0.05;0.05;;;4.70;1.00;;;;;;5094636;28;20056;-89
2023/01/17 12:33:08;;;;;;;0.00;0.00;;;4.60;99.90;;;;;;5095749;28;20039;-89
2023/01/17 12:35:40;;;;;;;0.00;0.00;;;4.70;99.90;;;;;;5086869;28;20055;-89
2023/01/17 12:38:09;;;;;;;27.75;1.27;;;4.90;10.10;;;;;;5095244;28;20062;-89
2023/01/17 12:40:44;;;;;;;1.17;0.57;;;5.00;99.90;;;;;;5096027;28;20395;-90
2023/01/17 12:43:18;;;;;;;0.00;0.00;;;5.00;99.90;;;;;;5095762;28;20055;-89
2023/01/17 12:45:46;;;;;;;0.28;0.25;;;5.20;99.90;;;;;;5096146;28;20051;-89
2023/01/17 12:48:16;;;;;;;0.00;0.00;;;5.40;99.90;;;;;;5096083;28;20044;-89
2023/01/17 12:50:59;;;;;;;0.00;0.00;;;5.50;99.90;;;;;;5095925;28;20083;-89
2023/01/17 12:53:45;;;;;;;0.00;0.00;;;5.70;99.90;;;;;;5096275;28;20094;-89
2023/01/17 12:56:23;;;;;;;0.00;0.00;;;6.00;12.50;;;;;;5093710;28;20052;-89
2023/01/17 12:58:54;;;;;;;0.40;0.40;;;6.30;99.90;;;;;;5091840;28;20051;-89
2023/01/17 13:01:41;;;;;;;0.00;0.00;;;6.50;1.00;;;;;;5093239;28;20514;-89
2023/01/17 13:04:33;;;;;;;0.30;0.30;;;6.60;99.90;;;;;;5092073;28;20055;-89
2023/01/17 13:07:04;;;;;;;0.00;0.00;;;6.90;1.00;;;;;;5092357;28;20044;-89
2023/01/17 13:09:38;;;;;;;0.00;0.00;;;7.10;99.90;;;;;;5093264;28;20101;-89
2023/01/17 13:12:14;;;;;;;0.00;0.00;;;7.20;66.30;;;;;;5093168;28;20491;-89
2023/01/17 13:14:40;;;;;;;0.00;0.00;;;7.30;1.00;;;;;;5092359;28;20048;-89
2023/01/17 13:17:23;;;;;;;0.00;0.00;;;7.20;51.60;;;;;;5093560;28;20032;-89
2023/01/17 13:19:54;;;;;;;0.60;0.45;;;6.90;1.00;;;;;;5093407;28;20044;-89
2023/01/17 13:22:22;;;;;;;0.00;0.00;;;6.90;1.00;;;;;;5091721;28;20097;-89
2023/01/17 13:25:00;;;;;;;0.10;0.10;;;6.70;1.00;;;;;;5092407;28;20054;-89
2023/01/17 13:27:42;;;;;;;0.00;0.00;;;6.60;1.00;;;;;;5093060;28;20048;-90
2023/01/17 13:30:20;;;;;;;1.65;0.57;;;6.60;99.90;;;;;;5093795;28;20052;-89
2023/01/17 13:32:58;;;;;;;0.00;0.00;;;6.60;99.90;;;;;;5093589;28;20044;-89
2023/01/17 13:35:48;;;;;;;1.27;0.43;;;6.40;99.90;;;;;;5092032;28;20135;-89
2023/01/17 13:38:30;;;;;;;1.08;0.22;;;6.50;1.00;;;;;;5092917;28;20055;-89
2023/01/17 13:41:11;;;;;;;0.00;0.00;;;6.70;99.90;;;;;;5093110;28;20040;-89
2023/01/17 13:44:20;;;;;;;0.00;0.00;;;6.70;1.00;;;;;;5092031;28;20080;-89
2023/01/17 13:46:59;;;;;;;0.00;0.00;;;6.60;99.90;;;;;;5092810;28;20052;-89
2023/01/17 13:49:28;;;;;;;0.25;0.20;;;6.10;99.90;;;;;;5091681;28;20066;-89
2023/01/17 13:52:06;;;;;;;0.00;0.00;;;5.80;99.90;;;;;;5092695;28;20122;-89
2023/01/17 13:54:32;;;;;;;0.30;0.20;;;5.70;99.90;;;;;;5091257;28;20100;-89
2023/01/17 13:57:27;;;;;;;0.00;0.00;;;5.50;99.90;;;;;;5091463;28;20437;-89
2023/01/17 13:59:55;;;;;;;0.17;0.17;;;5.40;99.90;;;;;;5093148;28;20526;-89
2023/01/17 14:02:34;;;;;;;0.00;0.00;;;5.30;99.90;;;;;;5092719;28;20051;-89
2023/01/17 14:05:11;;;;;;;0.00;0.00;;;5.30;99.90;;;;;;5096092;28;20141;-89
2023/01/17 14:07:41;;;;;;;;;;;5.40;99.90;;;;;;5096262;28;20043;-89
2023/01/17 14:10:27;;;;;;;0.00;0.00;;;5.40;99.90;;;;;;5095248;28;19920;-89
2023/01/17 14:12:54;;;;;;;0.00;0.00;;;5.40;99.90;;;;;;5094498;28;20088;-89
2023/01/17 14:15:24;;;;;;;0.00;0.00;;;5.50;99.90;;;;;;5110823;28;20054;-89
2023/01/17 14:17:55;;;;;;;0.00;0.00;;;5.50;99.90;;;;;;5094594;28;20181;-89
2023/01/17 14:20:36;;;;;;;0.00;0.00;;;5.60;99.90;;;;;;5094480;28;20084;-89
2023/01/17 14:23:19;;;;;;;0.00;0.00;;;5.60;99.90;;;;;;5092961;28;20048;-89
2023/01/17 14:25:45;;;;;;;0.00;0.00;;;5.50;99.90;;;;;;5094519;28;20097;-89
2023/01/17 14:28:25;;;;;;;0.38;0.25;;;5.50;99.90;;;;;;5093351;28;20130;-89
2023/01/17 14:30:53;;;;;;;0.00;0.00;;;5.30;99.90;;;;;;5094631;28;20101;-89
2023/01/17 14:33:39;;;;;;;0.00;0.00;;;5.30;99.90;;;;;;5094614;28;20051;-89
2023/01/17 14:36:26;;;;;;;0.00;0.00;;;5.20;99.90;;;;;;5094622;28;20169;-89
2023/01/17 14:38:51;;;;;;;0.15;0.15;;;5.20;99.90;;;;;;5093821;28;20075;-89
2023/01/17 14:41:20;;;;;;;0.00;0.00;;;5.10;99.90;;;;;;5093830;28;20501;-89
2023/01/17 14:43:48;;;;;;;0.68;0.40;;;5.20;99.90;;;;;;5094064;28;20044;-89